Have a Safe July 4th! 

Flight Track Log - Related Links

Times and Time Zones

All times are in EDT time to prevent confusion due to time zone crossing. See the UPS9515 flight status page for this flight to view local times or setup timezone preferences in your user account.

Time Position Orientation Groundspeed Altitude Reporting Facility
EDT Latitude Longitude Course Direction KTS MPH feet Rate Location/Type
Tue 09:09:11 AM 27.5250 -99.4603 75° East 139 160 2,300  Level Houston Center
Tue 09:10:13 AM 27.4750 -99.4328 154° Southeast 200 230 4,600 2,488 Climbing Houston Center
Tue 09:11:14 AM 27.4644 -99.3556 99° East 264 304 7,400 2,927 Climbing Houston Center
Tue 09:12:16 AM 27.5122 -99.2836 53° Northeast 278 320 10,600 2,419 Climbing Houston Center
Tue 09:13:00 AM 27.6287 -98.6766 75° East  Level FlightAware Approximate
Tue 09:13:18 AM 27.5622 -99.1958 57° Northeast 306 352 12,400  Level Houston Center
Tue 09:14:00 AM 27.6612 -98.5396 75° East  Level FlightAware Approximate
Tue 09:14:19 AM 27.6150 -99.0944 60° Northeast 352 405 15,000  Level Houston Center
Tue 09:15:21 AM 27.6697 -98.9892 60° Northeast 379 436 17,500 2,274 Climbing Houston Center
Tue 09:16:23 AM 27.7261 -98.8800 60° Northeast 395 455 19,700 2,098 Climbing Houston Center
Tue 09:17:24 AM 27.7981 -98.7433 59° Northeast 417 480 21,800 1,902 Climbing Houston Center
Tue 09:18:26 AM 27.8594 -98.6236 60° Northeast 434 499 23,600 328 Climbing Houston Center
Tue 09:24:07 AM 28.3040 -98.0370 60° Northeast 410 472 24,000 63 Climbing FlightAware ADS-B
Tue 09:24:47 AM 28.3660 -98.0760 331° Northwest 404 465 24,000  Level FlightAware ADS-B
Tue 09:25:27 AM 28.4290 -98.1210 328° Northwest 402 463 24,000  Level FlightAware ADS-B
Tue 09:26:07 AM 28.4830 -98.1590 328° Northwest 402 463 24,000 -3,506 Level FlightAware ADS-B
Tue 09:26:44 AM 28.5558 -98.2075 330° Northwest 386 444 19,500 -4,478 Descending FlightAware ADS-B
Tue 09:27:14 AM 28.6020 -98.2395 329° Northwest 381 438 19,000 -1,452 Descending FlightAware ADS-B
Tue 09:27:46 AM 28.6504 -98.2730 329° Northwest 379 436 18,000 -2,845 Descending FlightAware ADS-B
Tue 09:28:51 AM 28.7507 -98.3425 329° Northwest 394 453 14,400 -1,730 Descending FlightAware ADS-B
Tue 09:32:20 AM 29.0602 -98.4954 337° Northwest 290 334 10,100 -1,244 Descending FlightAware ADS-B
Tue 09:32:57 AM 29.1084 -98.4933 North 281 323 9,300 -1,017 Descending FlightAware ADS-B
Tue 09:35:17 AM 29.2900 -98.4830 North 280 322 7,100 -852 Descending FlightAware ADS-B
Tue 09:35:32 AM 29.3070 -98.4810 North 280 322 7,100  Level FlightAware ADS-B
Tue 09:36:02 AM 29.3470 -98.4790 North 273 314 7,100  Level FlightAware ADS-B
Tue 09:36:12 AM 29.3600 -98.4780 North 264 304 7,100  Level FlightAware ADS-B
Tue 09:36:38 AM 29.3916 -98.4838 351° North 241 277 7,100  Level FlightAware ADS-B
Tue 09:36:43 AM 29.3964 -98.4876 325° Northwest 239 275 7,100  Level FlightAware ADS-B
Tue 09:36:54 AM 29.4054 -98.4966 319° Northwest 239 275 7,100  Level FlightAware ADS-B
Tue 09:37:13 AM 29.4212 -98.5133 317° Northwest 238 274 7,100  Level FlightAware ADS-B
Tue 09:37:38 AM 29.4412 -98.5342 318° Northwest 236 272 7,100  Level FlightAware ADS-B
Tue 09:37:59 AM 29.4584 -98.5521 318° Northwest 236 272 7,100  Level FlightAware ADS-B
Tue 09:38:21 AM 29.4762 -98.5706 318° Northwest 235 270 7,100  Level FlightAware ADS-B
Tue 09:38:37 AM 29.4888 -98.5838 318° Northwest 236 272 7,100  Level FlightAware ADS-B
Tue 09:38:52 AM 29.5011 -98.5965 318° Northwest 236 272 7,100 -400 Level FlightAware ADS-B
Tue 09:39:07 AM 29.5135 -98.6092 318° Northwest 234 269 6,900 -545 Descending FlightAware ADS-B
Tue 09:39:25 AM 29.5277 -98.6240 318° Northwest 222 255 6,800 -732 Descending FlightAware ADS-B
Tue 09:39:48 AM 29.5449 -98.6418 318° Northwest 219 252 6,400 -1,000 Descending FlightAware ADS-B
Tue 09:40:07 AM 29.5596 -98.6568 318° Northwest 215 247 6,100 -514 Descending FlightAware ADS-B
Tue 09:40:23 AM 29.5708 -98.6679 319° Northwest 203 234 6,100  Level FlightAware ADS-B
Tue 09:40:38 AM 29.5808 -98.6778 319° Northwest 191 220 6,100  Level FlightAware ADS-B
Tue 09:40:50 AM 29.5890 -98.6859 319° Northwest 186 214 6,100  Level FlightAware ADS-B
Tue 09:41:06 AM 29.5997 -98.6964 320° Northwest 185 213 6,100  Level FlightAware ADS-B
Tue 09:41:24 AM 29.6119 -98.7083 320° Northwest 187 215 6,100  Level FlightAware ADS-B
Tue 09:41:45 AM 29.6256 -98.7220 319° Northwest 187 215 6,100  Level FlightAware ADS-B
Tue 09:42:02 AM 29.6367 -98.7331 319° Northwest 187 215 6,100  Level FlightAware ADS-B
Tue 09:42:21 AM 29.6496 -98.7449 322° Northwest 189 217 6,100  Level FlightAware ADS-B
Tue 09:42:25 AM 29.6529 -98.7465 337° Northwest 187 215 6,100 -1,037 Level FlightAware ADS-B
Tue 09:43:42 AM 29.7006 -98.7018 39° Northeast 185 213 4,700 -1,024 Descending FlightAware ADS-B
Tue 09:43:47 AM 29.6995 -98.6972 105° East 182 209 4,700 -857 Level FlightAware ADS-B
Tue 09:43:56 AM 29.6961 -98.6890 116° Southeast 179 206 4,500 -1,161 Descending FlightAware ADS-B
Tue 09:44:18 AM 29.6856 -98.6712 124° Southeast 181 208 4,100 -1,024 Descending FlightAware ADS-B
Tue 09:44:37 AM 29.6754 -98.6565 129° Southeast 183 211 3,800 -840 Descending FlightAware ADS-B
Tue 09:45:08 AM 29.6582 -98.6345 132° Southeast 183 211 3,400 -735 Descending FlightAware ADS-B
Tue 09:45:26 AM 29.6477 -98.6210 132° Southeast 183 211 3,200 -364 Descending FlightAware ADS-B
Tue 09:46:14 AM 29.6225 -98.5878 132° Southeast 181 208 3,000 -495 Descending Houston Center
Tue 09:47:15 AM 29.5917 -98.5475 131° Southeast 173 199 2,300 -683 Descending Houston Center
Tue 09:48:17 AM 29.5686 -98.5178 132° Southeast 126 145 1,600 -677 Descending Houston Center
Tue 09:49:19 AM 29.5461 -98.4878 131° Southeast 117 135 900 -677 Descending Houston Center

Login

Don't have an account? Register now (free) for customized features, flight alerts, and more!